S/y Blue Clipper — MCRJ6 — position and weather

sailwx.info

Track history (hours):
 
Tides and Currents Weather Stations Pressure Air Temp Water Temp Dewpoint Dewpoint Depression Visibility Wind Speed Wind Dir Waves Ship Positions

S/y Blue Clipper

Last reported at 2019-Feb-13 23:34 UTC. Time now 2019-Feb-21 16:41 UTC.
Position N 17°43' W 063°08'.

Length 38 m.

Type: Sailing vessel. MMSI: 232014202.

Date/timePositionNaut miles runAvg speedWind from/ knotsBaromVisibWave heightAir tempDewpointWater temp
2019-Feb-13 23:34N 17°43' W 063°08'1 4.7
2019-Feb-13 23:25N 17°43' W 063°08'2 4.6
2019-Feb-13 22:56N 17°46' W 063°08'3 5.3
2019-Feb-13 22:24N 17°48' W 063°08'2 4.6
2019-Feb-13 21:56N 17°51' W 063°08'2 3.0
2019-Feb-13 21:24N 17°49' W 063°09'3 6.3
2019-Feb-13 20:55N 17°47' W 063°11'3 3.3
2019-Feb-13 19:52N 17°44' W 063°13'4 5.8
2019-Feb-13 19:10N 17°48' W 063°13'1 6.0
2019-Feb-13 19:00N 17°49' W 063°13'2 3.5
2019-Feb-13 18:30N 17°50' W 063°13'5 7.7
2019-Feb-13 17:53N 17°55' W 063°12'2 6.1
2019-Feb-13 17:30N 17°58' W 063°11'2 4.7
2019-Feb-13 17:00N 17°60' W 063°11'3 3.9
2019-Feb-13 16:22N 18°02' W 063°11'2 5.0
2019-Feb-13 15:52N 18°05' W 063°10'3 5.7
2019-Feb-13 15:23N 18°07' W 063°08'2 4.0
2019-Feb-13 14:55N 18°07' W 063°07'2 0.1
2019-Feb-12 00:30N 18°05' W 063°06'0 0.0
2019-Feb-11 18:20N 18°05' W 063°06'0 0.0
2019-Feb-10 19:03N 18°05' W 063°06'0 0.0
2019-Feb-09 14:48N 18°05' W 063°06'0 0.0
2019-Feb-09 14:24N 18°05' W 063°06'0 0.0
2019-Feb-09 13:21N 18°05' W 063°06'0 0.0
2019-Feb-09 11:57N 18°05' W 063°06'0 0.0
2019-Feb-09 10:42N 18°05' W 063°06'0 0.0
2019-Feb-09 09:38N 18°05' W 063°06'0 0.0
2019-Feb-09 07:57N 18°05' W 063°06'1 1.0
2019-Feb-09 06:32N 18°05' W 063°07'2 4.4
2019-Feb-09 06:00N 18°06' W 063°09'2 4.0
2019-Feb-09 05:30N 18°04' W 063°10'1 2.4
2019-Feb-09 05:00N 18°03' W 063°09'2 5.0
2019-Feb-09 04:30N 18°01' W 063°07'3 6.3
2019-Feb-09 03:59N 17°59' W 063°05'  
Track history (hours):
 
Tides and Currents Weather Stations Pressure Air Temp Water Temp Dewpoint Dewpoint Depression Visibility Wind Speed Wind Dir Waves Ship Positions

S/y Blue Clipper

Last reported at 2019-Feb-13 23:34 UTC. Time now 2019-Feb-21 16:41 UTC.
Position N 17°43' W 063°08'.

Length 38 m.

Type: Sailing vessel. MMSI: 232014202.

Date/timePositionNaut miles runAvg speedWind from/ knotsBaromVisibWave heightAir tempDewpointWater temp
2019-Feb-13 23:34N 17°43' W 063°08'1 4.7
2019-Feb-13 23:25N 17°43' W 063°08'2 4.6
2019-Feb-13 22:56N 17°46' W 063°08'3 5.3
2019-Feb-13 22:24N 17°48' W 063°08'2 4.6
2019-Feb-13 21:56N 17°51' W 063°08'2 3.0
2019-Feb-13 21:24N 17°49' W 063°09'3 6.3
2019-Feb-13 20:55N 17°47' W 063°11'3 3.3
2019-Feb-13 19:52N 17°44' W 063°13'4 5.8
2019-Feb-13 19:10N 17°48' W 063°13'1 6.0
2019-Feb-13 19:00N 17°49' W 063°13'2 3.5
2019-Feb-13 18:30N 17°50' W 063°13'5 7.7
2019-Feb-13 17:53N 17°55' W 063°12'2 6.1
2019-Feb-13 17:30N 17°58' W 063°11'2 4.7
2019-Feb-13 17:00N 17°60' W 063°11'3 3.9
2019-Feb-13 16:22N 18°02' W 063°11'2 5.0
2019-Feb-13 15:52N 18°05' W 063°10'3 5.7
2019-Feb-13 15:23N 18°07' W 063°08'2 4.0
2019-Feb-13 14:55N 18°07' W 063°07'2 0.1
2019-Feb-12 00:30N 18°05' W 063°06'0 0.0
2019-Feb-11 18:20N 18°05' W 063°06'0 0.0
2019-Feb-10 19:03N 18°05' W 063°06'0 0.0
2019-Feb-09 14:48N 18°05' W 063°06'0 0.0
2019-Feb-09 14:24N 18°05' W 063°06'0 0.0
2019-Feb-09 13:21N 18°05' W 063°06'0 0.0
2019-Feb-09 11:57N 18°05' W 063°06'0 0.0
2019-Feb-09 10:42N 18°05' W 063°06'0 0.0
2019-Feb-09 09:38N 18°05' W 063°06'0 0.0
2019-Feb-09 07:57N 18°05' W 063°06'1 1.0
2019-Feb-09 06:32N 18°05' W 063°07'2 4.4
2019-Feb-09 06:00N 18°06' W 063°09'2 4.0
2019-Feb-09 05:30N 18°04' W 063°10'1 2.4
2019-Feb-09 05:00N 18°03' W 063°09'2 5.0
2019-Feb-09 04:30N 18°01' W 063°07'3 6.3
2019-Feb-09 03:59N 17°59' W 063°05'  

Dump ship's entire track history